Terminal Aerodrome Forecast
Issued by NWS Corpus Christi, TX

Home | Current Version | Previous Version | Text Only | Print | Product List | Glossary On
Versions: 1 2 3 4 5 6 7 8 9 10 11 12
787
FTUS44 KCRP 222320
TAFVCT
TAF
KVCT 222320Z 2300/2324 15015G22KT P6SM SCT250
     FM230300 17011KT P6SM SCT015
     FM231500 17016G22KT P6SM SCT035=

USA.gov is the U.S. government's official web portal to all federal, state and local government web resources and services.